createdAt,value
2023-04-12T00:00:46.705Z,96067.94
2023-04-12T00:03:13.141Z,96068.00
2023-04-12T00:05:39.535Z,96073.41
2023-04-12T00:08:06.191Z,96058.38
2023-04-12T00:10:32.568Z,96040.06
2023-04-12T00:12:58.923Z,96043.22
2023-04-12T00:15:25.250Z,96044.16
2023-04-12T00:17:51.675Z,96040.31
2023-04-12T00:20:18.148Z,96035.94
2023-04-12T00:22:45.009Z,96025.19
2023-04-12T00:25:11.608Z,96029.47
2023-04-12T00:27:38.989Z,96018.59
2023-04-12T00:30:07.326Z,96011.28
2023-04-12T00:32:33.753Z,96000.88
2023-04-12T00:35:00.284Z,95992.84
2023-04-12T00:37:26.656Z,95987.03
2023-04-12T00:39:52.989Z,95989.69
2023-04-12T00:42:19.306Z,95982.00
2023-04-12T00:44:45.693Z,95976.16
2023-04-12T00:47:12.096Z,95970.03
2023-04-12T00:49:38.474Z,95956.13
2023-04-12T00:52:14.469Z,95957.41
2023-04-12T00:54:42.948Z,95955.00
2023-04-12T00:57:09.857Z,95943.78
2023-04-12T00:59:36.267Z,95952.47
2023-04-12T01:02:03.134Z,95951.72
2023-04-12T01:04:29.605Z,95953.59
2023-04-12T01:07:19.020Z,95947.69
2023-04-12T01:10:08.158Z,95932.72
2023-04-12T01:12:57.431Z,95926.69
2023-04-12T01:15:26.221Z,95919.06
2023-04-12T01:18:09.838Z,95915.56
2023-04-12T01:20:48.257Z,95919.06
2023-04-12T01:23:41.294Z,95929.78
2023-04-12T01:26:26.547Z,95940.78
2023-04-12T01:28:54.607Z,95938.47
2023-04-12T01:31:21.637Z,95924.38
2023-04-12T01:33:50.414Z,95916.25
2023-04-12T01:36:19.848Z,95908.41
2023-04-12T01:38:46.831Z,95887.84
2023-04-12T01:41:13.614Z,95900.00
2023-04-12T01:43:42.886Z,95905.50
2023-04-12T01:46:11.951Z,95897.38
2023-04-12T01:48:39.263Z,95886.50
2023-04-12T01:51:18.637Z,95844.19
2023-04-12T01:54:03.864Z,95850.78
2023-04-12T01:56:34.503Z,95826.56
2023-04-12T01:59:02.150Z,95842.16
2023-04-12T02:01:29.277Z,95856.03
2023-04-12T02:03:59.134Z,95848.88
2023-04-12T02:06:27.499Z,95842.00
2023-04-12T02:08:59.835Z,95833.44
2023-04-12T02:11:26.247Z,95854.44
2023-04-12T02:13:52.664Z,95868.59
2023-04-12T02:16:20.501Z,95842.13
2023-04-12T02:18:47.479Z,95815.66
2023-04-12T02:21:13.836Z,95825.56
2023-04-12T02:23:41.745Z,95833.44
2023-04-12T02:26:08.103Z,95818.69
2023-04-12T02:28:34.636Z,95806.28
2023-04-12T02:31:01.112Z,95793.78
2023-04-12T02:33:30.809Z,95816.66
2023-04-12T02:35:57.306Z,95828.78
2023-04-12T02:38:23.849Z,95835.19
2023-04-12T02:40:50.430Z,95826.22
2023-04-12T02:43:16.792Z,95848.81
2023-04-12T02:45:43.140Z,95828.91
2023-04-12T02:48:09.609Z,95809.00
2023-04-12T02:50:37.157Z,95796.41
2023-04-12T02:53:03.503Z,95788.41
2023-04-12T02:55:30.483Z,95782.97
2023-04-12T02:57:57.274Z,95789.47
2023-04-12T03:00:23.907Z,95791.75
2023-04-12T03:02:53.479Z,95793.72
2023-04-12T03:05:20.160Z,95787.34
2023-04-12T03:07:46.512Z,95798.69
2023-04-12T03:10:13.149Z,95790.25
2023-04-12T03:12:39.589Z,95773.09
2023-04-12T03:15:06.454Z,95782.84
2023-04-12T03:17:32.814Z,95764.78
2023-04-12T03:20:09.599Z,95751.06
2023-04-12T03:22:37.178Z,95747.66
2023-04-12T03:25:05.233Z,95739.53
2023-04-12T03:27:31.753Z,95744.97
2023-04-12T03:29:58.134Z,95755.72
2023-04-12T03:32:24.937Z,95734.16
2023-04-12T03:34:51.287Z,95769.28
2023-04-12T03:37:18.060Z,95756.31
2023-04-12T03:39:47.723Z,95730.88
2023-04-12T03:42:29.378Z,95733.25
2023-04-12T03:44:58.504Z,95716.88
2023-04-12T03:47:24.891Z,95710.56
2023-04-12T03:50:06.068Z,95695.81
2023-04-12T03:52:37.308Z,95692.25
2023-04-12T03:55:05.709Z,95691.91
2023-04-12T03:57:32.033Z,95693.25
2023-04-12T03:59:58.383Z,95702.25
2023-04-12T04:02:25.477Z,95718.69
2023-04-12T04:04:52.093Z,95711.38
2023-04-12T04:07:18.463Z,95714.31
2023-04-12T04:09:44.863Z,95710.72
2023-04-12T04:12:11.196Z,95706.22
2023-04-12T04:14:37.534Z,95701.53
2023-04-12T04:17:03.878Z,95697.81
2023-04-12T04:19:30.211Z,95692.44
2023-04-12T04:21:56.707Z,95689.34
2023-04-12T04:24:25.102Z,95697.34
2023-04-12T04:26:54.128Z,95695.66
2023-04-12T04:29:20.579Z,95697.53
2023-04-12T04:31:47.162Z,95703.13
2023-04-12T04:34:13.654Z,95696.44
2023-04-12T04:36:41.475Z,95698.25
2023-04-12T04:39:07.816Z,95676.53
2023-04-12T04:41:41.292Z,95686.50
2023-04-12T04:44:11.219Z,95702.53
2023-04-12T04:46:38.130Z,95699.94
2023-04-12T04:49:05.424Z,95671.75
2023-04-12T04:51:32.450Z,95686.81
2023-04-12T04:53:59.188Z,95677.41
2023-04-12T04:56:26.106Z,95646.28
2023-04-12T04:58:53.985Z,95662.31
2023-04-12T05:01:25.638Z,95660.66
2023-04-12T05:03:52.198Z,95653.31
2023-04-12T05:06:18.608Z,95642.50
2023-04-12T05:08:45.276Z,95644.84
2023-04-12T05:11:11.591Z,95637.72
2023-04-12T05:13:38.198Z,95640.19
2023-04-12T05:16:08.138Z,95657.28
2023-04-12T05:18:34.650Z,95649.44
2023-04-12T05:21:05.299Z,95646.88
2023-04-12T05:23:37.136Z,95647.53
2023-04-12T05:26:04.241Z,95644.94
2023-04-12T05:28:30.766Z,95648.66
2023-04-12T05:30:57.368Z,95646.75
2023-04-12T05:33:23.813Z,95648.19
2023-04-12T05:35:50.273Z,95638.72
2023-04-12T05:38:16.612Z,95623.38
2023-04-12T05:40:44.029Z,95628.22
2023-04-12T05:43:14.292Z,95605.47
2023-04-12T05:45:41.755Z,95606.97
2023-04-12T05:48:08.721Z,95611.59
2023-04-12T05:50:35.709Z,95597.22
2023-04-12T05:53:02.776Z,95605.81
2023-04-12T05:55:29.884Z,95599.59
2023-04-12T05:57:57.523Z,95583.06
2023-04-12T06:00:24.176Z,95567.69
2023-04-12T06:02:52.134Z,95575.09
2023-04-12T06:05:18.628Z,95573.13
2023-04-12T06:07:47.975Z,95568.44
2023-04-12T06:10:18.352Z,95561.94
2023-04-12T06:12:44.882Z,95558.31
2023-04-12T06:15:11.438Z,95550.31
2023-04-12T06:17:38.224Z,95547.41
2023-04-12T06:20:09.525Z,95536.22
2023-04-12T06:22:36.963Z,95526.78
2023-04-12T06:25:03.809Z,95528.47
2023-04-12T06:27:30.246Z,95533.56
2023-04-12T06:29:57.115Z,95540.00
2023-04-12T06:32:23.806Z,95531.66
2023-04-12T06:34:50.363Z,95532.13
2023-04-12T06:37:16.709Z,95533.31
2023-04-12T06:39:43.101Z,95529.59
2023-04-12T06:42:09.499Z,95535.13
2023-04-12T06:44:35.982Z,95525.72
2023-04-12T06:47:02.494Z,95522.34
2023-04-12T06:49:28.940Z,95518.06
2023-04-12T06:51:55.317Z,95512.13
2023-04-12T06:54:21.718Z,95519.59
2023-04-12T06:56:48.173Z,95503.59
2023-04-12T06:59:14.586Z,95496.22
2023-04-12T07:01:41.932Z,95508.72
2023-04-12T07:04:10.967Z,95501.25
2023-04-12T07:06:37.372Z,95492.72
2023-04-12T07:09:04.008Z,95484.94
2023-04-12T07:11:31.603Z,95480.16
2023-04-12T07:13:59.095Z,95479.72
2023-04-12T07:16:25.637Z,95477.19
2023-04-12T07:18:52.013Z,95485.75
2023-04-12T07:21:18.504Z,95480.44
2023-04-12T07:23:46.421Z,95476.97
2023-04-12T07:26:12.747Z,95470.84
2023-04-12T07:28:39.410Z,95462.19
2023-04-12T07:31:06.983Z,95463.38
2023-04-12T07:33:34.765Z,95468.00
2023-04-12T07:36:01.974Z,95464.72
2023-04-12T07:38:28.445Z,95473.78
2023-04-12T07:40:55.645Z,95461.69
2023-04-12T07:43:22.601Z,95446.13
2023-04-12T07:45:49.321Z,95454.38
2023-04-12T07:48:16.001Z,95455.69
2023-04-12T07:50:42.345Z,95449.16
2023-04-12T07:53:26.572Z,95446.63
2023-04-12T07:55:53.827Z,95434.38
2023-04-12T07:58:22.020Z,95429.09
2023-04-12T08:00:49.127Z,95435.00
2023-04-12T08:03:17.293Z,95423.38
2023-04-12T08:05:44.300Z,95421.00
2023-04-12T08:08:11.586Z,95417.91
2023-04-12T08:10:38.754Z,95426.75
2023-04-12T08:13:06.588Z,95439.16
2023-04-12T08:15:33.286Z,95425.09
2023-04-12T08:17:59.712Z,95418.13
2023-04-12T08:20:26.073Z,95420.91
2023-04-12T08:22:52.725Z,95423.53
2023-04-12T08:25:19.060Z,95427.47
2023-04-12T08:27:45.901Z,95416.69
2023-04-12T08:30:13.294Z,95412.41
2023-04-12T08:32:39.673Z,95409.13
2023-04-12T08:35:06.482Z,95402.75
2023-04-12T08:37:33.325Z,95405.88
2023-04-12T08:40:04.564Z,95395.53
2023-04-12T08:42:31.814Z,95394.22
2023-04-12T08:44:58.245Z,95388.00
2023-04-12T08:47:24.677Z,95396.88
2023-04-12T08:49:51.078Z,95393.75
2023-04-12T08:52:17.500Z,95403.75
2023-04-12T08:54:43.903Z,95383.59
2023-04-12T08:57:10.730Z,95384.06
2023-04-12T08:59:39.214Z,95386.53
2023-04-12T09:02:05.878Z,95378.81
2023-04-12T09:04:32.439Z,95376.38
2023-04-12T09:06:58.927Z,95375.69
2023-04-12T09:09:42.351Z,95376.78
2023-04-12T09:12:09.386Z,95372.72
2023-04-12T09:14:35.932Z,95364.47
2023-04-12T09:17:02.365Z,95363.56
2023-04-12T09:19:36.069Z,95362.72
2023-04-12T09:22:02.691Z,95365.59
2023-04-12T09:24:29.462Z,95366.88
2023-04-12T09:27:07.304Z,95357.59
2023-04-12T09:29:34.228Z,95362.53
2023-04-12T09:32:09.105Z,95348.03
2023-04-12T09:34:36.557Z,95339.16
2023-04-12T09:37:16.655Z,95337.44
2023-04-12T09:39:43.236Z,95336.25
2023-04-12T09:42:29.275Z,95342.47
2023-04-12T09:44:58.437Z,95341.19
2023-04-12T09:47:40.885Z,95337.75
2023-04-12T09:50:09.450Z,95328.81
2023-04-12T09:52:38.161Z,95325.22
2023-04-12T09:55:11.231Z,95338.50
2023-04-12T09:57:42.408Z,95327.78
2023-04-12T10:00:20.085Z,95318.59
2023-04-12T10:02:50.984Z,95331.97
2023-04-12T10:05:20.348Z,95341.66
2023-04-12T10:07:47.543Z,95345.31
2023-04-12T10:10:16.514Z,95351.94
2023-04-12T10:12:45.632Z,95363.03
2023-04-12T10:15:13.597Z,95364.53
2023-04-12T10:17:58.288Z,95369.63
2023-04-12T10:20:28.168Z,95362.91
2023-04-12T10:22:56.289Z,95371.00
2023-04-12T10:25:25.047Z,95371.88
2023-04-12T10:27:51.651Z,95374.56
2023-04-12T10:30:27.083Z,95373.56
2023-04-12T10:33:02.496Z,95372.13
2023-04-12T10:35:30.372Z,95370.75
2023-04-12T10:38:01.110Z,95373.22
2023-04-12T10:40:28.646Z,95380.09
2023-04-12T10:43:23.096Z,95388.38
2023-04-12T10:45:50.372Z,95399.97
2023-04-12T10:48:32.416Z,95405.94
2023-04-12T10:51:28.526Z,95387.34
2023-04-12T10:54:17.625Z,95385.41
2023-04-12T10:56:45.998Z,95376.50
2023-04-12T10:59:16.374Z,95387.78
2023-04-12T11:02:08.857Z,95383.84
2023-04-12T11:04:36.063Z,95365.00
2023-04-12T11:07:11.416Z,95372.28
2023-04-12T11:09:42.933Z,95366.34
2023-04-12T11:12:16.555Z,95369.16
2023-04-12T11:14:48.936Z,95367.94
2023-04-12T11:17:15.771Z,95361.38
2023-04-12T11:19:53.576Z,95361.38
2023-04-12T11:22:23.739Z,95353.94
2023-04-12T11:24:52.427Z,95350.31
2023-04-12T11:27:20.744Z,95348.78
2023-04-12T11:29:53.593Z,95351.06
2023-04-12T11:32:21.529Z,95347.16
2023-04-12T11:34:48.022Z,95338.31
2023-04-12T11:37:15.052Z,95338.13
2023-04-12T11:39:43.661Z,95331.69
2023-04-12T11:42:18.466Z,95320.34
2023-04-12T11:47:17.030Z,95323.31
2023-04-12T11:49:57.477Z,95329.72
2023-04-12T11:52:31.909Z,95333.53
2023-04-12T11:55:04.938Z,95339.16
2023-04-12T11:57:31.337Z,95334.13
2023-04-12T12:00:01.200Z,95332.81
2023-04-12T12:02:33.073Z,95338.25
2023-04-12T12:05:03.515Z,95333.31
2023-04-12T12:07:30.734Z,95325.84
2023-04-12T12:09:57.715Z,95321.13
2023-04-12T12:12:24.123Z,95300.94
2023-04-12T12:14:50.895Z,95305.63
2023-04-12T12:17:17.442Z,95322.72
2023-04-12T12:19:45.928Z,95327.03
2023-04-12T12:22:22.108Z,95336.31
2023-04-12T12:24:59.257Z,95328.44
2023-04-12T12:27:35.165Z,95340.00
2023-04-12T12:30:04.216Z,95339.25
2023-04-12T12:32:35.035Z,95346.16
2023-04-12T12:35:01.696Z,95341.25
2023-04-12T12:37:30.182Z,95340.31
2023-04-12T12:40:15.348Z,95335.78
2023-04-12T12:42:50.603Z,95320.00
2023-04-12T12:45:18.613Z,95313.03
2023-04-12T12:48:02.496Z,95311.91
2023-04-12T12:50:31.451Z,95308.81
2023-04-12T12:53:00.496Z,95292.41
2023-04-12T12:55:27.945Z,95293.41
2023-04-12T12:58:07.501Z,95299.84
2023-04-12T13:00:34.930Z,95293.16
2023-04-12T13:03:01.783Z,95294.84
2023-04-12T13:05:28.562Z,95296.19
2023-04-12T13:07:54.901Z,95285.94
2023-04-12T13:10:21.458Z,95286.59
2023-04-12T13:12:48.077Z,95283.59
2023-04-12T13:17:43.906Z,95282.09
2023-04-12T13:20:10.594Z,95267.69
2023-04-12T13:22:36.932Z,95277.03
2023-04-12T13:25:04.063Z,95277.03
2023-04-12T13:27:30.397Z,95273.88
2023-04-12T13:29:56.816Z,95279.41
2023-04-12T13:32:23.220Z,95271.06
2023-04-12T13:34:49.695Z,95273.50
2023-04-12T13:37:16.196Z,95257.25
2023-04-12T13:39:44.525Z,95259.53
2023-04-12T13:42:10.904Z,95252.53
2023-04-12T13:44:37.264Z,95251.28
2023-04-12T13:47:03.862Z,95247.19
2023-04-12T13:49:30.203Z,95236.56
2023-04-12T13:51:56.671Z,95226.13
2023-04-12T13:54:23.279Z,95221.97
2023-04-12T13:56:49.583Z,95225.81
2023-04-12T13:59:15.981Z,95235.16
2023-04-12T14:01:42.546Z,95234.19
2023-04-12T14:04:09.204Z,95232.66
2023-04-12T14:06:36.416Z,95228.84
2023-04-12T14:09:02.765Z,95224.66
2023-04-12T14:11:29.106Z,95230.13
2023-04-12T14:13:55.617Z,95229.03
2023-04-12T14:16:22.006Z,95219.06
2023-04-12T14:18:48.321Z,95227.97
2023-04-12T14:21:14.657Z,95229.97
2023-04-12T14:23:41.509Z,95219.69
2023-04-12T14:26:07.833Z,95221.78
2023-04-12T14:28:35.364Z,95222.88
2023-04-12T14:31:03.573Z,95217.22
2023-04-12T14:33:31.341Z,95219.59
2023-04-12T14:35:58.045Z,95220.78
2023-04-12T14:38:24.391Z,95212.06
2023-04-12T14:40:51.605Z,95218.97
2023-04-12T14:43:18.025Z,95210.53
2023-04-12T14:45:44.346Z,95217.06
2023-04-12T14:48:10.935Z,95231.13
2023-04-12T14:50:37.303Z,95216.44
2023-04-12T14:53:03.713Z,95218.00
2023-04-12T14:55:30.411Z,95223.03
2023-04-12T14:57:56.718Z,95230.22
2023-04-12T15:00:23.256Z,95218.78
2023-04-12T15:02:49.867Z,95211.88
2023-04-12T15:05:16.434Z,95213.53
2023-04-12T15:07:42.884Z,95199.81
2023-04-12T15:10:09.730Z,95196.66
2023-04-12T15:12:37.197Z,95214.66
2023-04-12T15:15:06.221Z,95230.19
2023-04-12T15:17:34.065Z,95230.78
2023-04-12T15:20:08.348Z,95235.69
2023-04-12T15:22:39.192Z,95230.50
2023-04-12T15:25:06.624Z,95233.13
2023-04-12T15:27:33.108Z,95229.31
2023-04-12T15:30:00.555Z,95245.63
2023-04-12T15:32:27.735Z,95263.44
2023-04-12T15:34:58.139Z,95256.25
2023-04-12T15:37:25.491Z,95279.00
2023-04-12T15:39:52.396Z,95248.81
2023-04-12T15:42:19.212Z,95240.06
2023-04-12T15:44:45.870Z,95226.63
2023-04-12T15:47:12.529Z,95235.09
2023-04-12T15:49:39.743Z,95222.16
2023-04-12T15:52:06.395Z,95220.97
2023-04-12T15:54:32.724Z,95228.00
2023-04-12T15:57:02.525Z,95222.50
2023-04-12T15:59:29.974Z,95220.19
2023-04-12T16:01:58.581Z,95234.63
2023-04-12T16:04:26.850Z,95224.72
2023-04-12T16:06:53.224Z,95235.13
2023-04-12T16:09:22.211Z,95241.09
2023-04-12T16:11:48.758Z,95249.22
2023-04-12T16:14:15.493Z,95238.97
2023-04-12T16:16:41.982Z,95247.66
2023-04-12T16:19:08.458Z,95257.59
2023-04-12T16:21:35.866Z,95263.13
2023-04-12T16:24:02.191Z,95259.59
2023-04-12T16:26:29.591Z,95248.94
2023-04-12T16:28:57.328Z,95254.38
2023-04-12T16:31:25.024Z,95243.91
2023-04-12T16:33:51.659Z,95226.38
2023-04-12T16:36:18.470Z,95229.50
2023-04-12T16:38:49.328Z,95217.41
2023-04-12T16:41:17.217Z,95215.25
2023-04-12T16:43:45.395Z,95211.13
2023-04-12T16:46:12.072Z,95209.50
2023-04-12T16:48:42.047Z,95217.06
2023-04-12T16:51:08.738Z,95221.66
2023-04-12T16:53:36.545Z,95217.41
2023-04-12T16:56:02.930Z,95221.47
2023-04-12T16:58:29.328Z,95227.16
2023-04-12T17:00:56.881Z,95217.16
2023-04-12T17:03:24.138Z,95230.50
2023-04-12T17:05:50.796Z,95214.56
2023-04-12T17:08:17.447Z,95221.59
2023-04-12T17:10:43.913Z,95216.66
2023-04-12T17:13:10.287Z,95200.38
2023-04-12T17:15:36.618Z,95210.22
2023-04-12T17:18:10.948Z,95197.72
2023-04-12T17:20:38.117Z,95203.31
2023-04-12T17:23:05.112Z,95209.06
2023-04-12T17:25:32.102Z,95200.78
2023-04-12T17:28:02.962Z,95203.91
2023-04-12T17:30:29.795Z,95210.16
2023-04-12T17:32:56.417Z,95212.94
2023-04-12T17:35:22.886Z,95211.94
2023-04-12T17:37:49.337Z,95219.97
2023-04-12T17:40:16.070Z,95221.28
2023-04-12T17:42:43.584Z,95219.00
2023-04-12T17:45:12.413Z,95233.09
2023-04-12T17:47:39.674Z,95231.81
2023-04-12T17:50:08.238Z,95228.19
2023-04-12T17:52:34.640Z,95244.66
2023-04-12T17:55:01.176Z,95300.53
2023-04-12T17:57:27.641Z,95289.56
2023-04-12T17:59:54.030Z,95316.66
2023-04-12T18:02:20.705Z,95310.22
2023-04-12T18:04:48.204Z,95340.06
2023-04-12T18:07:16.407Z,95330.81
2023-04-12T18:09:44.561Z,95346.09
2023-04-12T18:12:12.214Z,95355.09
2023-04-12T18:14:40.407Z,95352.69
2023-04-12T18:17:07.281Z,95359.16
2023-04-12T18:19:33.922Z,95364.59
2023-04-12T18:22:00.375Z,95356.34
2023-04-12T18:24:26.956Z,95368.47
2023-04-12T18:26:53.471Z,95363.81
2023-04-12T18:29:19.984Z,95374.25
2023-04-12T18:31:46.523Z,95377.38
2023-04-12T18:34:13.906Z,95383.00
2023-04-12T18:36:42.152Z,95374.78
2023-04-12T18:39:08.842Z,95381.13
2023-04-12T18:41:35.750Z,95384.06
2023-04-12T18:44:02.742Z,95375.72
2023-04-12T18:46:29.594Z,95390.56
2023-04-12T18:48:56.241Z,95387.38
2023-04-12T18:51:23.204Z,95378.31
2023-04-12T18:53:50.496Z,95385.00
2023-04-12T18:56:22.892Z,95390.25
2023-04-12T18:58:55.728Z,95381.50
2023-04-12T19:01:23.401Z,95385.94
2023-04-12T19:03:50.105Z,95404.41
2023-04-12T19:06:16.972Z,95399.72
2023-04-12T19:08:43.433Z,95391.03
2023-04-12T19:11:09.986Z,95389.66
2023-04-12T19:13:37.160Z,95388.50
2023-04-12T19:16:07.307Z,95395.78
2023-04-12T19:18:34.272Z,95406.25
2023-04-12T19:21:01.024Z,95405.75
2023-04-12T19:23:27.433Z,95404.09
2023-04-12T19:25:54.419Z,95399.84
2023-04-12T19:28:20.971Z,95415.47
2023-04-12T19:30:47.309Z,95406.13
2023-04-12T19:33:13.651Z,95408.41
2023-04-12T19:35:40.573Z,95411.03
2023-04-12T19:38:08.254Z,95413.38
2023-04-12T19:40:34.748Z,95412.34
2023-04-12T19:43:01.139Z,95410.03
2023-04-12T19:45:28.683Z,95411.47
2023-04-12T19:47:55.862Z,95402.53
2023-04-12T19:50:22.957Z,95427.25
2023-04-12T19:52:49.362Z,95422.00
2023-04-12T19:55:16.261Z,95423.78
2023-04-12T19:57:43.020Z,95421.75
2023-04-12T20:00:20.544Z,95423.00
2023-04-12T20:02:48.844Z,95416.97
2023-04-12T20:05:17.891Z,95418.63
2023-04-12T20:07:45.119Z,95416.00
2023-04-12T20:10:13.428Z,95419.44
2023-04-12T20:12:39.894Z,95409.97
2023-04-12T20:15:11.596Z,95406.97
2023-04-12T20:17:42.647Z,95409.13
2023-04-12T20:20:17.167Z,95402.13
2023-04-12T20:22:46.029Z,95406.53
2023-04-12T20:25:13.032Z,95400.06
2023-04-12T20:27:39.402Z,95398.47
2023-04-12T20:30:07.101Z,95394.78
2023-04-12T20:32:35.618Z,95400.13
2023-04-12T20:35:05.490Z,95391.56
2023-04-12T20:37:32.562Z,95401.91
2023-04-12T20:39:59.412Z,95395.69
2023-04-12T20:42:26.251Z,95396.47
2023-04-12T20:44:53.145Z,95397.19
2023-04-12T20:47:19.690Z,95406.19
2023-04-12T20:49:46.148Z,95401.72
2023-04-12T20:52:16.596Z,95406.94
2023-04-12T20:54:42.973Z,95411.06
2023-04-12T20:57:10.573Z,95434.47
2023-04-12T20:59:38.552Z,95467.53
2023-04-12T21:02:05.084Z,95541.88
2023-04-12T21:04:35.837Z,95553.88
2023-04-12T21:07:02.735Z,95512.59
2023-04-12T21:09:30.044Z,95519.09
2023-04-12T21:11:57.796Z,95527.75
2023-04-12T21:14:24.251Z,95575.91
2023-04-12T21:16:50.634Z,95560.13
2023-04-12T21:19:18.280Z,95536.00
2023-04-12T21:21:45.988Z,95538.06
2023-04-12T21:24:13.060Z,95540.13
2023-04-12T21:26:40.115Z,95540.81
2023-04-12T21:29:06.455Z,95542.28
2023-04-12T21:31:32.900Z,95541.63
2023-04-12T21:33:59.690Z,95541.22
2023-04-12T21:36:30.203Z,95542.03
2023-04-12T21:38:58.642Z,95538.44
2023-04-12T21:41:25.159Z,95554.31
2023-04-12T21:43:52.126Z,95540.91
2023-04-12T21:46:18.739Z,95546.09
2023-04-12T21:48:45.152Z,95543.03
2023-04-12T21:51:11.494Z,95553.66
2023-04-12T21:53:38.004Z,95564.41
2023-04-12T21:56:04.802Z,95575.31
2023-04-12T21:58:33.065Z,95575.72
2023-04-12T22:00:59.702Z,95581.75
2023-04-12T22:03:26.169Z,95579.16
2023-04-12T22:06:03.719Z,95574.34
2023-04-12T22:08:32.600Z,95578.09
2023-04-12T22:11:00.099Z,95580.53
2023-04-12T22:13:26.735Z,95570.22
2023-04-12T22:15:53.069Z,95585.63
2023-04-12T22:18:19.654Z,95581.91
2023-04-12T22:20:46.038Z,95585.63
2023-04-12T22:23:13.724Z,95595.22
2023-04-12T22:25:40.087Z,95591.22
2023-04-12T22:28:06.524Z,95595.78
2023-04-12T22:30:32.970Z,95594.81
2023-04-12T22:32:59.881Z,95581.22
2023-04-12T22:35:26.968Z,95583.31
2023-04-12T22:37:53.356Z,95581.38
2023-04-12T22:40:19.963Z,95584.53
2023-04-12T22:42:48.121Z,95577.66
2023-04-12T22:45:16.180Z,95574.06
2023-04-12T22:47:43.808Z,95571.56
2023-04-12T22:50:12.491Z,95574.03
2023-04-12T22:52:39.681Z,95579.25
2023-04-12T22:55:08.291Z,95580.03
2023-04-12T22:57:36.329Z,95582.25
2023-04-12T23:00:05.694Z,95584.72
2023-04-12T23:02:33.297Z,95587.19
2023-04-12T23:05:00.432Z,95585.00
2023-04-12T23:07:29.688Z,95582.25
2023-04-12T23:09:56.798Z,95585.28
2023-04-12T23:12:23.806Z,95588.84
2023-04-12T23:14:50.842Z,95581.06
2023-04-12T23:17:19.434Z,95591.34
2023-04-12T23:19:45.817Z,95586.72
2023-04-12T23:22:21.595Z,95594.28
2023-04-12T23:24:50.891Z,95584.97
2023-04-12T23:27:18.192Z,95593.38
2023-04-12T23:29:44.520Z,95580.59
2023-04-12T23:32:12.015Z,95584.91
2023-04-12T23:34:38.348Z,95591.22
2023-04-12T23:37:04.684Z,95590.13
2023-04-12T23:39:31.264Z,95593.50
2023-04-12T23:41:57.580Z,95587.75
2023-04-12T23:44:25.038Z,95591.09
2023-04-12T23:46:51.490Z,95588.31
2023-04-12T23:49:17.904Z,95592.19
2023-04-12T23:51:44.349Z,95589.44
2023-04-12T23:54:11.072Z,95591.91
2023-04-12T23:56:37.421Z,95593.53
2023-04-12T23:59:03.803Z,95595.47
